Time;durP1;ratioP1;P1;durP2;ratioP2;P2;SDS_P1;SDS_P2;PMS_P1;PMS_P2;Temp;Humidity;BMP_temperature;BMP_pressure;BME280_temperature;BME280_humidity;BME280_pressure;Samples;Min_cycle;Max_cycle;Signal;HPM_P1;HPM_P2
2022/01/19 00:00:17;;;;;;;59.40;37.83;;;;;;;;;;5002973;28;21587;-60
2022/01/19 00:02:43;;;;;;;59.20;39.10;;;;;;;;;;5017298;28;20056;-61
2022/01/19 00:05:11;;;;;;;63.00;40.95;;;;;;;;;;5000385;28;20056;-62
2022/01/19 00:07:37;;;;;;;63.28;38.65;;;;;;;;;;5026245;28;20512;-62
2022/01/19 00:10:08;;;;;;;57.25;35.47;;;;;;;;;;5015792;28;20127;-62
2022/01/19 00:12:35;;;;;;;63.60;37.78;;;;;;;;;;5017189;28;20041;-62
2022/01/19 00:15:01;;;;;;;61.67;37.85;;;;;;;;;;5028788;28;20095;-62
2022/01/19 00:17:27;;;;;;;61.60;36.55;;;;;;;;;;5045970;28;20048;-62
2022/01/19 00:19:53;;;;;;;63.25;36.78;;;;;;;;;;5031472;28;20096;-62
2022/01/19 00:22:19;;;;;;;66.15;36.97;;;;;;;;;;5028890;28;20395;-61
2022/01/19 00:24:45;;;;;;;71.40;40.15;;;;;;;;;;4999630;28;20040;-62
2022/01/19 00:27:12;;;;;;;69.20;38.63;;;;;;;;;;5028180;28;20091;-62
2022/01/19 00:29:38;;;;;;;67.80;36.17;;;;;;;;;;5036006;28;20387;-61
2022/01/19 00:32:04;;;;;;;70.63;37.63;;;;;;;;;;5032353;28;20034;-61
2022/01/19 00:34:30;;;;;;;64.28;35.33;;;;;;;;;;5016648;28;20026;-62
2022/01/19 00:36:56;;;;;;;65.05;36.45;;;;;;;;;;5039201;28;20419;-62
2022/01/19 00:39:31;;;;;;;67.53;39.40;;;;;;;;;;5015318;28;20514;-62
2022/01/19 00:41:57;;;;;;;65.28;36.83;;;;;;;;;;5031233;28;20120;-62
2022/01/19 00:44:23;;;;;;;53.67;31.88;;;;;;;;;;5032088;28;20094;-62
2022/01/19 00:46:49;;;;;;;48.47;30.15;;;;;;;;;;5016841;28;20456;-62
2022/01/19 00:49:15;;;;;;;52.20;31.40;;;;;;;;;;5035356;28;20550;-60
2022/01/19 00:51:41;;;;;;;56.47;31.90;;;;;;;;;;5044410;28;20049;-60
2022/01/19 00:54:07;;;;;;;54.08;32.08;;;;;;;;;;5014801;28;20045;-60
2022/01/19 00:56:34;;;;;;;56.28;31.35;;;;;;;;;;5044609;28;20045;-61
2022/01/19 00:59:01;;;;;;;51.17;29.83;;;;;;;;;;5019331;28;20053;-61
2022/01/19 01:01:27;;;;;;;55.38;29.42;;;;;;;;;;5047408;28;20391;-60
2022/01/19 01:03:53;;;;;;;58.22;30.58;;;;;;;;;;5016771;28;20037;-61
2022/01/19 01:06:20;;;;;;;66.63;30.60;;;;;;;;;;5012274;28;20041;-62
2022/01/19 01:08:46;;;;;;;66.90;32.22;;;;;;;;;;5019576;28;20109;-61
2022/01/19 01:11:13;;;;;;;63.97;30.00;;;;;;;;;;5035775;28;20045;-61
2022/01/19 01:16:35;;;;;;;77.00;34.40;;;;;;;;;;5007393;28;20518;-61
2022/01/19 01:19:03;;;;;;;80.13;34.67;;;;;;;;;;5016999;28;20426;-61
2022/01/19 01:21:29;;;;;;;79.72;33.95;;;;;;;;;;5015156;28;20041;-62
2022/01/19 01:23:55;;;;;;;84.40;34.70;;;;;;;;;;5011744;28;20646;-61
2022/01/19 01:26:21;;;;;;;90.57;35.70;;;;;;;;;;5033775;28;20037;-61
2022/01/19 01:28:47;;;;;;;87.97;35.67;;;;;;;;;;4993890;28;20116;-60
2022/01/19 01:31:13;;;;;;;82.15;31.77;;;;;;;;;;5032388;28;20395;-59
2022/01/19 01:33:40;;;;;;;97.32;36.40;;;;;;;;;;4998732;28;20084;-61
2022/01/19 01:36:06;;;;;;;106.00;37.50;;;;;;;;;;5031911;28;20049;-61
2022/01/19 01:38:33;;;;;;;100.63;37.72;;;;;;;;;;5000515;28;20080;-61
2022/01/19 01:40:59;;;;;;;105.45;38.83;;;;;;;;;;5034607;28;20542;-61
2022/01/19 01:43:26;;;;;;;97.40;36.58;;;;;;;;;;5029854;28;20594;-62
2022/01/19 01:45:58;;;;;;;93.15;32.58;;;;;;;;;;5011973;28;20419;-62
2022/01/19 01:48:25;;;;;;;84.07;33.80;;;;;;;;;;4999699;28;20120;-60
2022/01/19 01:53:37;;;;;;;107.60;39.15;;;;;;;;;;5012993;28;20511;-61
2022/01/19 01:56:09;;;;;;;101.50;39.92;;;;;;;;;;5033554;28;20083;-62
2022/01/19 01:58:37;;;;;;;97.68;37.67;;;;;;;;;;5044843;28;20045;-61
2022/01/19 02:01:03;;;;;;;93.60;38.78;;;;;;;;;;5041239;28;20055;-62
2022/01/19 02:03:37;;;;;;;96.78;40.67;;;;;;;;;;5019160;28;20470;-63
2022/01/19 02:22:53;;;;;;;104.40;40.70;;;;;;;;;;5031141;28;20148;-61
2022/01/19 02:25:26;;;;;;;102.57;40.40;;;;;;;;;;5043965;28;20052;-61
2022/01/19 02:41:26;;;;;;;98.22;39.05;;;;;;;;;;5018370;28;20048;-60
2022/01/19 02:43:55;;;;;;;97.80;39.95;;;;;;;;;;5025383;28;20046;-61
2022/01/19 02:49:14;;;;;;;92.47;36.38;;;;;;;;;;5042276;28;20049;-61
2022/01/19 02:51:40;;;;;;;96.10;37.00;;;;;;;;;;5039583;28;20542;-62
2022/01/19 02:54:10;;;;;;;100.72;37.55;;;;;;;;;;5045570;28;20091;-62
2022/01/19 02:56:39;;;;;;;101.65;38.38;;;;;;;;;;4998935;28;20059;-61
2022/01/19 02:59:19;;;;;;;96.55;35.70;;;;;;;;;;5023576;28;20094;-61
2022/01/19 03:09:44;;;;;;;93.28;37.65;;;;;;;;;;5043845;28;20539;-62
2022/01/19 03:12:11;;;;;;;108.65;38.85;;;;;;;;;;5035630;28;20041;-61
2022/01/19 03:14:37;;;;;;;94.85;37.38;;;;;;;;;;5040819;28;20053;-62
2022/01/19 03:17:04;;;;;;;99.75;39.50;;;;;;;;;;5030424;28;20076;-61
2022/01/19 03:19:31;;;;;;;86.93;34.42;;;;;;;;;;5044320;28;20048;-62
2022/01/19 03:21:57;;;;;;;93.25;37.25;;;;;;;;;;5005715;28;20052;-62
2022/01/19 03:24:24;;;;;;;105.22;38.65;;;;;;;;;;5037475;28;20399;-61
2022/01/19 03:26:50;;;;;;;108.10;40.85;;;;;;;;;;5037756;28;20239;-61
2022/01/19 03:29:17;;;;;;;114.80;42.53;;;;;;;;;;5042755;28;20041;-61
2022/01/19 03:31:43;;;;;;;105.72;41.30;;;;;;;;;;5046975;28;20037;-61
2022/01/19 03:34:10;;;;;;;99.63;36.58;;;;;;;;;;5025811;28;20045;-60
2022/01/19 03:36:37;;;;;;;105.40;36.40;;;;;;;;;;5044781;28;20517;-61
2022/01/19 03:39:03;;;;;;;107.47;36.53;;;;;;;;;;5040090;28;20045;-61
2022/01/19 03:41:29;;;;;;;103.40;38.97;;;;;;;;;;5005406;28;20061;-61
2022/01/19 03:43:55;;;;;;;111.28;38.47;;;;;;;;;;5029743;28;20045;-62
2022/01/19 03:46:29;;;;;;;108.50;40.47;;;;;;;;;;5046526;28;20051;-62
2022/01/19 03:48:57;;;;;;;110.32;39.03;;;;;;;;;;5041530;28;20067;-62
2022/01/19 03:51:24;;;;;;;99.78;37.42;;;;;;;;;;5020243;28;20041;-63
2022/01/19 03:53:50;;;;;;;106.20;39.17;;;;;;;;;;5022915;28;20359;-63
2022/01/19 03:56:17;;;;;;;102.82;41.10;;;;;;;;;;5047327;28;20095;-63
2022/01/19 03:58:43;;;;;;;92.85;38.55;;;;;;;;;;5041588;28;20124;-62
2022/01/19 04:01:10;;;;;;;108.72;42.65;;;;;;;;;;5039998;28;20069;-61
2022/01/19 04:06:26;;;;;;;80.18;34.15;;;;;;;;;;5043917;28;20056;-62
2022/01/19 04:08:52;;;;;;;99.15;42.22;;;;;;;;;;5046014;28;20083;-62
2022/01/19 04:11:20;;;;;;;96.18;39.72;;;;;;;;;;5037527;28;20478;-62
2022/01/19 04:14:21;;;;;;;92.30;39.88;;;;;;;;;;5037042;28;20061;-63
2022/01/19 04:16:45;;;;;;;106.05;43.17;;;;;;;;;;5033185;28;20171;-62
2022/01/19 04:21:40;;;;;;;100.63;41.78;;;;;;;;;;5043996;28;20049;-61
2022/01/19 04:24:06;;;;;;;97.72;43.70;;;;;;;;;;5017136;28;20104;-61
2022/01/19 04:26:32;;;;;;;90.63;38.97;;;;;;;;;;5042498;28;20486;-63
2022/01/19 04:28:58;;;;;;;98.05;45.58;;;;;;;;;;5040818;28;20091;-63
2022/01/19 04:31:24;;;;;;;82.85;33.42;;;;;;;;;;5043007;28;20059;-63
2022/01/19 04:33:50;;;;;;;101.43;42.80;;;;;;;;;;5014622;28;20040;-62
2022/01/19 04:36:28;;;;;;;95.97;41.72;;;;;;;;;;5029957;28;20041;-61
2022/01/19 05:13:50;;;;;;;108.78;47.92;;;;;;;;;;5045109;28;20057;-63
2022/01/19 05:16:16;;;;;;;101.22;43.90;;;;;;;;;;5045803;28;20082;-63
2022/01/19 05:18:42;;;;;;;109.35;47.25;;;;;;;;;;5024804;28;20403;-63
2022/01/19 05:21:08;;;;;;;109.30;44.95;;;;;;;;;;5018897;28;20132;-61
2022/01/19 05:23:34;;;;;;;103.68;44.42;;;;;;;;;;5045429;28;20036;-61
2022/01/19 05:26:00;;;;;;;118.15;48.65;;;;;;;;;;5011814;28;20533;-64
2022/01/19 05:28:26;;;;;;;114.30;48.33;;;;;;;;;;5013009;28;20131;-63
2022/01/19 05:30:52;;;;;;;113.88;48.38;;;;;;;;;;5001999;28;20046;-63
2022/01/19 05:33:18;;;;;;;117.70;49.95;;;;;;;;;;5020787;28;20514;-63
2022/01/19 05:35:44;;;;;;;116.22;49.88;;;;;;;;;;5019420;28;20083;-63
2022/01/19 05:38:10;;;;;;;115.20;47.05;;;;;;;;;;5044553;28;20034;-63
2022/01/19 05:40:37;;;;;;;111.63;47.30;;;;;;;;;;5041400;28;20124;-63
2022/01/19 05:43:03;;;;;;;114.43;48.47;;;;;;;;;;5018271;28;20047;-62
2022/01/19 05:45:29;;;;;;;107.35;45.88;;;;;;;;;;5036636;28;20123;-62
2022/01/19 05:47:56;;;;;;;113.47;47.90;;;;;;;;;;5035651;28;20368;-61
2022/01/19 05:50:24;;;;;;;114.45;48.67;;;;;;;;;;5044423;28;20478;-62
2022/01/19 05:52:50;;;;;;;113.30;48.47;;;;;;;;;;5020386;28;20064;-62
2022/01/19 05:55:17;;;;;;;111.93;48.63;;;;;;;;;;5013127;28;20050;-62
2022/01/19 05:57:43;;;;;;;103.20;46.83;;;;;;;;;;5045959;28;20033;-62
2022/01/19 06:00:10;;;;;;;105.40;45.30;;;;;;;;;;5021941;28;20379;-61
2022/01/19 06:02:36;;;;;;;106.32;47.45;;;;;;;;;;5018387;28;20495;-61
2022/01/19 06:05:03;;;;;;;105.60;47.88;;;;;;;;;;5047643;28;20037;-62
2022/01/19 06:07:31;;;;;;;105.53;46.35;;;;;;;;;;5037137;28;20072;-62
2022/01/19 06:10:04;;;;;;;112.55;50.50;;;;;;;;;;5025793;28;20391;-63
2022/01/19 06:12:30;;;;;;;94.68;45.00;;;;;;;;;;5027641;28;20041;-63
2022/01/19 06:14:56;;;;;;;100.13;47.97;;;;;;;;;;5014600;28;20415;-62
2022/01/19 06:17:22;;;;;;;95.05;44.42;;;;;;;;;;5044657;28;20041;-63
2022/01/19 06:19:49;;;;;;;99.95;48.55;;;;;;;;;;5043848;28;20038;-62
2022/01/19 06:22:17;;;;;;;108.47;47.70;;;;;;;;;;5029962;28;20048;-62
2022/01/19 06:24:43;;;;;;;99.38;46.65;;;;;;;;;;5029815;28;20076;-63
2022/01/19 06:27:10;;;;;;;95.03;47.10;;;;;;;;;;5020450;28;20037;-63
2022/01/19 06:29:36;;;;;;;92.63;45.95;;;;;;;;;;5027261;28;20361;-62
2022/01/19 06:32:02;;;;;;;94.85;45.92;;;;;;;;;;5043949;28;20041;-62
2022/01/19 06:34:28;;;;;;;92.60;46.47;;;;;;;;;;5030889;28;20037;-62
2022/01/19 06:36:54;;;;;;;96.35;47.20;;;;;;;;;;5046038;28;20124;-62
2022/01/19 06:39:21;;;;;;;91.63;47.15;;;;;;;;;;5019229;28;20064;-60
2022/01/19 06:41:47;;;;;;;101.28;49.45;;;;;;;;;;5001951;28;20084;-61
2022/01/19 06:44:14;;;;;;;95.57;45.53;;;;;;;;;;5015533;28;20037;-61
2022/01/19 06:46:40;;;;;;;95.85;48.22;;;;;;;;;;5045217;28;20049;-61
2022/01/19 06:49:06;;;;;;;91.72;46.70;;;;;;;;;;5038366;28;20045;-61
2022/01/19 06:51:32;;;;;;;100.50;47.80;;;;;;;;;;5028973;28;20163;-60
2022/01/19 06:53:58;;;;;;;99.15;49.33;;;;;;;;;;5041290;28;20422;-61
2022/01/19 06:56:25;;;;;;;99.13;48.42;;;;;;;;;;5016696;28;20069;-60
2022/01/19 06:58:51;;;;;;;88.63;45.42;;;;;;;;;;5014676;28;20041;-61
2022/01/19 07:01:17;;;;;;;104.82;50.95;;;;;;;;;;5018067;28;20394;-60
2022/01/19 07:03:43;;;;;;;96.47;47.92;;;;;;;;;;5042735;28;20033;-61
2022/01/19 07:06:11;;;;;;;83.80;42.38;;;;;;;;;;5044255;28;20083;-62
2022/01/19 07:08:38;;;;;;;94.82;46.40;;;;;;;;;;5045626;28;20045;-60
2022/01/19 07:11:04;;;;;;;92.18;45.83;;;;;;;;;;5011679;28;20048;-62
2022/01/19 07:13:30;;;;;;;98.35;49.45;;;;;;;;;;5020540;28;20061;-62
2022/01/19 07:15:57;;;;;;;92.25;47.72;;;;;;;;;;5023830;28;20041;-62
2022/01/19 07:18:23;;;;;;;89.90;44.95;;;;;;;;;;5003438;28;20041;-62
2022/01/19 07:20:49;;;;;;;90.00;44.67;;;;;;;;;;5045506;28;20048;-62
2022/01/19 07:23:15;;;;;;;99.82;48.53;;;;;;;;;;5014576;28;20033;-63
2022/01/19 07:25:41;;;;;;;88.60;46.30;;;;;;;;;;5010745;28;20049;-62
2022/01/19 07:28:11;;;;;;;95.05;47.70;;;;;;;;;;5010741;28;20111;-61
2022/01/19 07:30:37;;;;;;;85.00;43.72;;;;;;;;;;5028570;28;20041;-62
2022/01/19 07:33:03;;;;;;;87.05;43.92;;;;;;;;;;5028944;28;20127;-61
2022/01/19 07:35:30;;;;;;;81.07;43.85;;;;;;;;;;5020629;28;20037;-62
2022/01/19 07:37:56;;;;;;;84.00;43.85;;;;;;;;;;5037248;28;20116;-63
2022/01/19 07:40:22;;;;;;;86.55;44.22;;;;;;;;;;5013699;28;20144;-62
2022/01/19 07:42:49;;;;;;;76.78;42.10;;;;;;;;;;5043770;28;20041;-62
2022/01/19 07:45:15;;;;;;;77.63;41.80;;;;;;;;;;5024583;28;20128;-62
2022/01/19 07:47:41;;;;;;;76.95;41.88;;;;;;;;;;5022493;28;20080;-62
2022/01/19 07:50:08;;;;;;;85.05;44.85;;;;;;;;;;5040046;28;20490;-61
2022/01/19 07:52:34;;;;;;;79.18;43.45;;;;;;;;;;5041744;28;20033;-62
2022/01/19 07:55:02;;;;;;;84.60;43.67;;;;;;;;;;5030713;28;20097;-62
2022/01/19 07:57:29;;;;;;;86.00;44.60;;;;;;;;;;5035889;28;20037;-63
2022/01/19 07:59:55;;;;;;;90.63;46.42;;;;;;;;;;5009186;28;20041;-61
2022/01/19 08:02:21;;;;;;;88.60;45.28;;;;;;;;;;5031855;28;20237;-61
2022/01/19 08:04:47;;;;;;;92.28;44.00;;;;;;;;;;5043137;28;20038;-62
2022/01/19 08:07:13;;;;;;;90.38;46.45;;;;;;;;;;5043733;28;20041;-62
2022/01/19 08:09:40;;;;;;;85.90;43.35;;;;;;;;;;5020962;28;20437;-61
2022/01/19 08:12:07;;;;;;;84.88;44.35;;;;;;;;;;5036089;28;20053;-63
2022/01/19 08:14:33;;;;;;;93.28;45.22;;;;;;;;;;5044331;28;20053;-62
2022/01/19 08:16:59;;;;;;;84.93;44.88;;;;;;;;;;5014018;28;20091;-63
2022/01/19 08:19:25;;;;;;;81.93;42.72;;;;;;;;;;5042968;28;20072;-62
2022/01/19 08:21:51;;;;;;;78.55;43.40;;;;;;;;;;5032662;28;20040;-61
2022/01/19 08:24:18;;;;;;;84.65;44.80;;;;;;;;;;5014895;28;20103;-61
2022/01/19 08:26:44;;;;;;;82.47;45.38;;;;;;;;;;5030758;28;20091;-62
2022/01/19 08:29:10;;;;;;;83.32;45.85;;;;;;;;;;4998022;28;20056;-62
2022/01/19 08:31:36;;;;;;;75.47;41.47;;;;;;;;;;5014386;28;20052;-62
2022/01/19 08:34:02;;;;;;;77.13;41.45;;;;;;;;;;5014285;28;20503;-62
2022/01/19 08:36:29;;;;;;;83.80;44.65;;;;;;;;;;5014364;28;20439;-62
2022/01/19 08:38:55;;;;;;;79.97;45.58;;;;;;;;;;5014457;28;20552;-62
2022/01/19 08:41:22;;;;;;;84.95;45.40;;;;;;;;;;5014396;28;20037;-62
2022/01/19 08:43:48;;;;;;;90.72;47.63;;;;;;;;;;5014309;28;20434;-62
2022/01/19 08:46:14;;;;;;;79.30;42.80;;;;;;;;;;5031563;28;20037;-62
2022/01/19 08:48:40;;;;;;;88.18;46.47;;;;;;;;;;5031095;28;20052;-62
2022/01/19 08:51:06;;;;;;;87.68;45.03;;;;;;;;;;5030136;28;20041;-61
2022/01/19 08:53:33;;;;;;;80.72;45.85;;;;;;;;;;5030986;28;20034;-62
2022/01/19 08:55:59;;;;;;;88.13;48.08;;;;;;;;;;5030290;28;20550;-63
2022/01/19 08:58:25;;;;;;;88.70;48.10;;;;;;;;;;5008730;28;20046;-62
2022/01/19 09:00:51;;;;;;;92.35;49.35;;;;;;;;;;5029578;28;20037;-62
2022/01/19 09:03:18;;;;;;;78.78;44.58;;;;;;;;;;5009070;28;20128;-62
2022/01/19 09:05:44;;;;;;;87.90;47.70;;;;;;;;;;5029748;28;20038;-62
2022/01/19 09:08:10;;;;;;;85.78;46.53;;;;;;;;;;5029467;28;20116;-61
2022/01/19 09:10:40;;;;;;;82.25;45.38;;;;;;;;;;5029400;28;20518;-61
2022/01/19 09:13:06;;;;;;;80.10;46.42;;;;;;;;;;5027219;28;20041;-61
2022/01/19 09:15:32;;;;;;;83.60;47.20;;;;;;;;;;5011379;28;20056;-61
2022/01/19 09:17:58;;;;;;;79.35;44.45;;;;;;;;;;4995176;28;20037;-61
2022/01/19 09:20:24;;;;;;;81.47;47.92;;;;;;;;;;5012218;28;20041;-61
2022/01/19 09:22:50;;;;;;;82.53;46.22;;;;;;;;;;5029296;28;20090;-62
2022/01/19 09:25:16;;;;;;;80.00;46.22;;;;;;;;;;4995153;28;20484;-62
2022/01/19 09:27:42;;;;;;;84.75;46.92;;;;;;;;;;5011406;28;20568;-61
2022/01/19 09:30:14;;;;;;;78.28;45.60;;;;;;;;;;5028611;28;20163;-61
2022/01/19 09:32:41;;;;;;;79.05;44.92;;;;;;;;;;5028819;28;20116;-63
2022/01/19 09:35:09;;;;;;;70.20;41.95;;;;;;;;;;5028505;28;20045;-62
2022/01/19 09:37:36;;;;;;;76.40;45.80;;;;;;;;;;5012042;28;20396;-61
2022/01/19 09:40:03;;;;;;;72.93;43.65;;;;;;;;;;5028415;28;20439;-62
2022/01/19 09:42:29;;;;;;;71.72;42.45;;;;;;;;;;5010113;28;20037;-60
2022/01/19 09:44:56;;;;;;;76.40;44.55;;;;;;;;;;5029990;28;20422;-60
2022/01/19 09:47:22;;;;;;;82.63;47.45;;;;;;;;;;5011973;28;20393;-60
2022/01/19 09:49:48;;;;;;;74.40;43.30;;;;;;;;;;5012162;28;20041;-60
2022/01/19 09:52:14;;;;;;;81.55;44.55;;;;;;;;;;5030909;28;20095;-60
2022/01/19 09:54:40;;;;;;;64.38;37.42;;;;;;;;;;5030926;28;20045;-59
2022/01/19 09:57:06;;;;;;;69.40;39.47;;;;;;;;;;4995111;28;20049;-61
2022/01/19 09:59:33;;;;;;;72.05;43.47;;;;;;;;;;5028216;28;20562;-61
2022/01/19 10:02:05;;;;;;;62.25;36.53;;;;;;;;;;5010263;28;20041;-62
2022/01/19 10:04:32;;;;;;;77.90;44.47;;;;;;;;;;5011255;28;20324;-62
2022/01/19 10:07:17;;;;;;;72.47;41.42;;;;;;;;;;5009731;28;20107;-62
2022/01/19 10:10:02;;;;;;;75.40;44.45;;;;;;;;;;5026528;28;20046;-61
2022/01/19 10:18:22;;;;;;;72.20;44.10;;;;;;;;;;4969635;28;20057;-62
2022/01/19 10:21:04;;;;;;;75.65;43.75;;;;;;;;;;5010942;28;20462;-62
2022/01/19 10:23:35;;;;;;;74.72;42.15;;;;;;;;;;5008174;28;20069;-62
2022/01/19 10:26:09;;;;;;;75.68;43.92;;;;;;;;;;5025087;28;20048;-62
2022/01/19 10:28:54;;;;;;;75.40;43.55;;;;;;;;;;5010279;28;20077;-62
2022/01/19 10:31:20;;;;;;;72.43;43.83;;;;;;;;;;5009416;28;20045;-62
2022/01/19 10:34:06;;;;;;;80.47;44.08;;;;;;;;;;5026344;28;20073;-62
2022/01/19 10:37:02;;;;;;;76.20;44.83;;;;;;;;;;5028172;28;20041;-62
2022/01/19 10:39:51;;;;;;;77.60;45.67;;;;;;;;;;4998045;28;20065;-63
2022/01/19 10:42:19;;;;;;;69.07;42.28;;;;;;;;;;5028192;28;20076;-63
2022/01/19 10:44:46;;;;;;;73.70;41.40;;;;;;;;;;4993979;28;20052;-63
2022/01/19 10:47:12;;;;;;;71.53;43.63;;;;;;;;;;4994352;28;20053;-63
2022/01/19 10:49:48;;;;;;;72.85;43.08;;;;;;;;;;5028480;28;20049;-63
2022/01/19 10:52:31;;;;;;;77.75;45.47;;;;;;;;;;5011153;28;20045;-63
2022/01/19 10:54:59;;;;;;;78.03;46.38;;;;;;;;;;4993276;28;20084;-63
2022/01/19 10:57:26;;;;;;;78.95;46.83;;;;;;;;;;5011088;28;20043;-63
2022/01/19 10:59:53;;;;;;;71.38;42.50;;;;;;;;;;5010877;28;20045;-63
2022/01/19 11:02:20;;;;;;;85.40;48.60;;;;;;;;;;5029902;28;20124;-62
2022/01/19 11:04:46;;;;;;;80.55;47.05;;;;;;;;;;5009862;28;20116;-62
2022/01/19 11:07:15;;;;;;;75.53;45.85;;;;;;;;;;5028000;28;20053;-63
2022/01/19 11:09:46;;;;;;;80.63;46.28;;;;;;;;;;5043280;28;20149;-62
2022/01/19 11:12:18;;;;;;;71.97;43.95;;;;;;;;;;5009860;28;20037;-63
2022/01/19 11:14:45;;;;;;;80.70;46.83;;;;;;;;;;5009190;28;20483;-62
2022/01/19 11:17:11;;;;;;;80.38;46.60;;;;;;;;;;5027702;28;20042;-62
2022/01/19 11:19:38;;;;;;;77.63;47.53;;;;;;;;;;5010242;28;20087;-62
2022/01/19 11:22:14;;;;;;;79.07;46.58;;;;;;;;;;5010149;28;20045;-62
2022/01/19 11:24:48;;;;;;;82.40;49.75;;;;;;;;;;5010187;28;20112;-62
2022/01/19 11:27:15;;;;;;;84.88;49.50;;;;;;;;;;5011445;28;20085;-62
2022/01/19 11:29:41;;;;;;;74.82;45.78;;;;;;;;;;5011492;28;20117;-62
2022/01/19 11:32:15;;;;;;;81.93;46.95;;;;;;;;;;5011562;28;20046;-62
2022/01/19 11:34:50;;;;;;;77.18;48.63;;;;;;;;;;5011392;28;20053;-62
2022/01/19 11:37:31;;;;;;;62.05;34.25;;;;;;;;;;5011256;28;20065;-62
2022/01/19 11:40:00;;;;;;;81.35;47.78;;;;;;;;;;5011254;28;20041;-62
2022/01/19 11:42:26;;;;;;;73.82;42.80;;;;;;;;;;5028896;28;20103;-62
2022/01/19 11:44:53;;;;;;;77.20;46.78;;;;;;;;;;4997044;28;20073;-62
2022/01/19 11:47:21;;;;;;;80.03;47.50;;;;;;;;;;5015022;28;20049;-62
2022/01/19 11:49:50;;;;;;;69.38;43.25;;;;;;;;;;4998458;28;20056;-62
2022/01/19 11:52:19;;;;;;;68.45;43.85;;;;;;;;;;4998891;28;20041;-62
2022/01/19 11:54:45;;;;;;;70.35;44.65;;;;;;;;;;5014990;28;20391;-62
2022/01/19 11:57:12;;;;;;;75.40;46.90;;;;;;;;;;5015186;28;20463;-62
2022/01/19 11:59:44;;;;;;;65.78;38.42;;;;;;;;;;5014884;28;20495;-62
2022/01/19 12:02:32;;;;;;;70.32;45.92;;;;;;;;;;5015084;28;20045;-62
2022/01/19 12:04:58;;;;;;;71.38;44.92;;;;;;;;;;5014945;28;20041;-62
2022/01/19 12:07:38;;;;;;;68.50;43.03;;;;;;;;;;5015065;28;20570;-62
2022/01/19 12:10:06;;;;;;;64.03;38.17;;;;;;;;;;5014790;28;20448;-62
2022/01/19 12:12:38;;;;;;;74.53;45.58;;;;;;;;;;5032848;28;20466;-62
2022/01/19 12:15:07;;;;;;;76.93;48.25;;;;;;;;;;5032600;28;20057;-62
2022/01/19 12:17:55;;;;;;;73.13;49.17;;;;;;;;;;5014665;28;20106;-62
2022/01/19 12:20:40;;;;;;;72.35;48.03;;;;;;;;;;5015021;28;20513;-62
2022/01/19 12:23:24;;;;;;;71.20;44.70;;;;;;;;;;4998241;28;20133;-63
2022/01/19 12:25:54;;;;;;;68.20;43.78;;;;;;;;;;4998218;28;20068;-62
2022/01/19 12:28:39;;;;;;;75.13;47.15;;;;;;;;;;5032430;28;20049;-62
2022/01/19 12:31:24;;;;;;;71.63;41.72;;;;;;;;;;5015047;28;20033;-63
2022/01/19 12:34:07;;;;;;;77.90;46.33;;;;;;;;;;5014754;28;20380;-62
2022/01/19 12:36:52;;;;;;;77.28;47.50;;;;;;;;;;5014601;28;20112;-62
2022/01/19 12:39:25;;;;;;;77.38;45.35;;;;;;;;;;5014613;28;20520;-62
2022/01/19 12:41:59;;;;;;;78.93;49.05;;;;;;;;;;5014106;28;20050;-62
2022/01/19 12:44:44;;;;;;;75.43;45.67;;;;;;;;;;4998108;28;20048;-62
2022/01/19 12:47:26;;;;;;;71.72;45.85;;;;;;;;;;5014814;28;20553;-62
2022/01/19 12:49:53;;;;;;;80.28;48.47;;;;;;;;;;5013903;28;20053;-62
2022/01/19 12:52:20;;;;;;;70.07;42.10;;;;;;;;;;5014466;28;20041;-62
2022/01/19 12:54:46;;;;;;;77.45;46.90;;;;;;;;;;5031698;28;20042;-62
2022/01/19 12:57:15;;;;;;;70.22;43.25;;;;;;;;;;5014495;28;20132;-62
2022/01/19 12:59:42;;;;;;;73.57;43.10;;;;;;;;;;5031803;28;20399;-62
2022/01/19 13:02:08;;;;;;;73.97;43.42;;;;;;;;;;4997497;28;20475;-63
2022/01/19 13:04:35;;;;;;;68.75;41.03;;;;;;;;;;5013992;28;20124;-62
2022/01/19 13:07:21;;;;;;;74.10;44.13;;;;;;;;;;5013925;28;20495;-62
2022/01/19 13:10:28;;;;;;;74.63;43.53;;;;;;;;;;5013936;28;20150;-62
2022/01/19 13:13:04;;;;;;;66.57;39.55;;;;;;;;;;5013844;28;20500;-63
2022/01/19 13:15:49;;;;;;;71.25;42.00;;;;;;;;;;5030981;28;20099;-62
2022/01/19 13:18:17;;;;;;;62.53;35.67;;;;;;;;;;5013316;28;20053;-62
2022/01/19 13:20:53;;;;;;;69.97;41.30;;;;;;;;;;5014728;28;20045;-61
2022/01/19 13:23:19;;;;;;;66.47;39.35;;;;;;;;;;5031441;28;20049;-61
2022/01/19 13:25:54;;;;;;;59.40;32.55;;;;;;;;;;4997471;28;20044;-61
2022/01/19 13:28:24;;;;;;;61.70;36.65;;;;;;;;;;5013406;28;20171;-61
2022/01/19 13:30:50;;;;;;;70.70;40.10;;;;;;;;;;5013685;28;20046;-61
2022/01/19 13:33:16;;;;;;;64.70;36.83;;;;;;;;;;5013417;28;20136;-61
2022/01/19 13:35:43;;;;;;;63.97;38.00;;;;;;;;;;4997120;28;20125;-62
2022/01/19 13:38:09;;;;;;;64.07;37.13;;;;;;;;;;5031316;28;20619;-61
2022/01/19 13:40:36;;;;;;;59.90;31.35;;;;;;;;;;5013137;28;20399;-62
2022/01/19 13:43:04;;;;;;;56.60;33.50;;;;;;;;;;5031086;28;20671;-62
2022/01/19 13:45:47;;;;;;;68.45;37.53;;;;;;;;;;5013294;28;20046;-61
2022/01/19 13:50:49;;;;;;;60.67;35.55;;;;;;;;;;5012800;28;20041;-62
2022/01/19 13:53:16;;;;;;;63.55;35.67;;;;;;;;;;5012692;28;20043;-62
2022/01/19 13:55:42;;;;;;;68.25;38.05;;;;;;;;;;5012547;28;20068;-62
2022/01/19 13:58:10;;;;;;;69.13;38.30;;;;;;;;;;5030397;28;20080;-62
2022/01/19 14:00:37;;;;;;;60.78;34.33;;;;;;;;;;5012565;28;20511;-61
2022/01/19 14:03:04;;;;;;;61.17;36.88;;;;;;;;;;4996605;28;20037;-62
2022/01/19 14:05:35;;;;;;;75.57;40.20;;;;;;;;;;5030267;28;20048;-62
2022/01/19 14:08:01;;;;;;;65.82;36.78;;;;;;;;;;5011414;28;20094;-61
2022/01/19 14:10:27;;;;;;;76.38;41.15;;;;;;;;;;5012549;28;20077;-62
2022/01/19 14:12:53;;;;;;;72.63;38.85;;;;;;;;;;5012011;28;20045;-62
2022/01/19 14:15:26;;;;;;;83.72;44.13;;;;;;;;;;5029807;28;20046;-63
2022/01/19 14:17:53;;;;;;;81.93;42.22;;;;;;;;;;5029980;28;20049;-63
2022/01/19 14:20:21;;;;;;;75.93;42.50;;;;;;;;;;5011936;28;20519;-63
2022/01/19 14:22:48;;;;;;;82.70;43.42;;;;;;;;;;4996217;28;20045;-63
2022/01/19 14:25:17;;;;;;;88.45;43.30;;;;;;;;;;5030469;28;20128;-62
2022/01/19 14:27:46;;;;;;;96.15;47.90;;;;;;;;;;5012561;28;20044;-62
2022/01/19 14:30:15;;;;;;;97.45;47.13;;;;;;;;;;5029969;28;20037;-62
2022/01/19 14:32:50;;;;;;;101.18;48.35;;;;;;;;;;4995869;28;20065;-62
2022/01/19 14:35:23;;;;;;;103.20;49.55;;;;;;;;;;5011899;28;20049;-62
2022/01/19 14:38:07;;;;;;;92.97;43.37;;;;;;;;;;5012100;28;20053;-63
2022/01/19 14:40:56;;;;;;;91.15;45.47;;;;;;;;;;5011957;28;20068;-63
2022/01/19 14:43:25;;;;;;;99.03;47.80;;;;;;;;;;4973755;28;20061;-63
2022/01/19 14:45:55;;;;;;;74.35;33.83;;;;;;;;;;5011461;28;20507;-63
2022/01/19 14:48:25;;;;;;;96.40;45.80;;;;;;;;;;5029461;28;20196;-63
2022/01/19 14:50:51;;;;;;;101.97;45.75;;;;;;;;;;5011870;28;20048;-63
2022/01/19 14:53:17;;;;;;;68.95;33.42;;;;;;;;;;5012273;28;20045;-63
2022/01/19 14:55:44;;;;;;;75.90;36.28;;;;;;;;;;5011862;28;20514;-63
2022/01/19 14:58:11;;;;;;;78.25;38.25;;;;;;;;;;5012002;28;20041;-63
2022/01/19 15:00:39;;;;;;;76.78;37.00;;;;;;;;;;5011765;28;20394;-63
2022/01/19 15:03:05;;;;;;;69.68;34.53;;;;;;;;;;5011704;28;20429;-63
2022/01/19 15:05:32;;;;;;;75.15;33.95;;;;;;;;;;5012229;28;20034;-63
2022/01/19 15:07:59;;;;;;;71.25;33.42;;;;;;;;;;5012113;28;20041;-62
2022/01/19 15:10:26;;;;;;;61.53;28.38;;;;;;;;;;5011971;28;20038;-62
2022/01/19 15:12:53;;;;;;;64.45;32.13;;;;;;;;;;5011990;28;20059;-62
2022/01/19 15:15:29;;;;;;;57.78;26.45;;;;;;;;;;5008223;28;20061;-63
2022/01/19 15:17:57;;;;;;;57.03;29.42;;;;;;;;;;5011452;28;20057;-63
2022/01/19 15:20:23;;;;;;;68.35;32.28;;;;;;;;;;5014599;28;20124;-63
2022/01/19 15:22:49;;;;;;;64.20;30.40;;;;;;;;;;5014571;28;20100;-63
2022/01/19 15:25:15;;;;;;;75.47;32.25;;;;;;;;;;5000664;28;20089;-63
2022/01/19 15:27:42;;;;;;;63.63;27.60;;;;;;;;;;4995968;28;20049;-63
2022/01/19 15:30:09;;;;;;;66.32;30.38;;;;;;;;;;4994400;28;20120;-63
2022/01/19 15:32:35;;;;;;;57.85;26.20;;;;;;;;;;4978261;28;20472;-63
2022/01/19 15:35:01;;;;;;;61.40;27.10;;;;;;;;;;4993802;28;20347;-63
2022/01/19 15:37:28;;;;;;;63.97;30.05;;;;;;;;;;4978580;28;20045;-63
2022/01/19 15:39:55;;;;;;;58.38;28.00;;;;;;;;;;4994146;28;20069;-62
2022/01/19 15:42:21;;;;;;;50.40;25.23;;;;;;;;;;4993312;28;20046;-63
2022/01/19 15:44:48;;;;;;;38.60;19.73;;;;;;;;;;4992930;28;20542;-63
2022/01/19 15:47:15;;;;;;;50.53;23.88;;;;;;;;;;4995414;28;20046;-63
2022/01/19 15:49:41;;;;;;;49.50;22.77;;;;;;;;;;4993829;28;20137;-63
2022/01/19 15:52:07;;;;;;;53.13;26.13;;;;;;;;;;4952182;28;20129;-63
2022/01/19 15:54:34;;;;;;;40.85;21.17;;;;;;;;;;4974762;28;20146;-63
2022/01/19 15:57:01;;;;;;;37.38;15.32;;;;;;;;;;4973003;28;20138;-63
2022/01/19 15:59:28;;;;;;;43.75;22.80;;;;;;;;;;4989855;28;20101;-62